createdAt,value
2019-01-20T00:00:58.663Z,1013.61
2019-01-20T00:01:58.656Z,1013.58
2019-01-20T00:02:58.703Z,1013.63
2019-01-20T00:03:58.630Z,1013.58
2019-01-20T00:04:58.621Z,1013.62
2019-01-20T00:05:58.608Z,1013.61
2019-01-20T00:06:58.599Z,1013.60
2019-01-20T00:07:58.592Z,1013.55
2019-01-20T00:08:58.577Z,1013.54
2019-01-20T00:09:58.566Z,1013.51
2019-01-20T00:10:58.594Z,1013.51
2019-01-20T00:11:58.548Z,1013.47
2019-01-20T00:12:58.537Z,1013.52
2019-01-20T00:13:58.525Z,1013.50
2019-01-20T00:14:58.537Z,1013.49
2019-01-20T00:15:58.503Z,1013.46
2019-01-20T00:16:58.540Z,1013.47
2019-01-20T00:17:58.489Z,1013.51
2019-01-20T00:18:58.479Z,1013.43
2019-01-20T00:19:58.459Z,1013.50
2019-01-20T00:20:58.448Z,1013.43
2019-01-20T00:21:58.451Z,1013.43
2019-01-20T00:22:58.426Z,1013.42
2019-01-20T00:23:58.415Z,1013.42
2019-01-20T00:24:58.416Z,1013.41
2019-01-20T00:25:58.392Z,1013.44
2019-01-20T00:26:58.388Z,1013.42
2019-01-20T00:27:58.379Z,1013.45
2019-01-20T00:28:58.361Z,1013.43
2019-01-20T00:29:58.352Z,1013.44
2019-01-20T00:30:58.346Z,1013.44
2019-01-20T00:31:58.331Z,1013.44
2019-01-20T00:32:58.322Z,1013.48
2019-01-20T00:33:58.322Z,1013.48
2019-01-20T00:34:58.297Z,1013.48
2019-01-20T00:35:58.290Z,1013.50
2019-01-20T00:36:58.285Z,1013.49
2019-01-20T00:37:58.263Z,1013.44
2019-01-20T00:38:58.254Z,1013.47
2019-01-20T00:39:58.242Z,1013.46
2019-01-20T00:40:58.232Z,1013.46
2019-01-20T00:42:17.867Z,1013.46
2019-01-20T00:43:39.956Z,1013.42
2019-01-20T00:45:02.876Z,1013.41
2019-01-20T00:46:21.494Z,1013.42
2019-01-20T00:47:21.485Z,1013.40
2019-01-20T00:49:03.522Z,1013.44
2019-01-20T00:50:03.511Z,1013.44
2019-01-20T00:51:03.501Z,1013.45
2019-01-20T00:52:03.489Z,1013.47
2019-01-20T00:53:03.475Z,1013.47
2019-01-20T00:54:03.466Z,1013.44
2019-01-20T00:55:03.454Z,1013.48
2019-01-20T00:56:03.450Z,1013.49
2019-01-20T00:57:03.435Z,1013.44
2019-01-20T00:58:03.422Z,1013.52
2019-01-20T00:59:03.411Z,1013.48
2019-01-20T01:00:03.400Z,1013.49
2019-01-20T01:01:03.387Z,1013.47
2019-01-20T01:02:03.379Z,1013.48
2019-01-20T01:03:03.364Z,1013.45
2019-01-20T01:04:03.354Z,1013.42
2019-01-20T01:05:03.343Z,1013.47
2019-01-20T01:06:03.332Z,1013.42
2019-01-20T01:07:03.385Z,1013.48
2019-01-20T01:08:03.318Z,1013.45
2019-01-20T01:09:03.300Z,1013.43
2019-01-20T01:10:03.291Z,1013.37
2019-01-20T01:11:03.279Z,1013.35
2019-01-20T01:12:03.273Z,1013.40
2019-01-20T01:13:03.255Z,1013.37
2019-01-20T01:14:03.245Z,1013.40
2019-01-20T01:15:03.237Z,1013.32
2019-01-20T01:16:03.224Z,1013.38
2019-01-20T01:17:03.215Z,1013.39
2019-01-20T01:18:23.868Z,1013.36
2019-01-20T01:19:45.250Z,1013.41
2019-01-20T01:20:45.233Z,1013.43
2019-01-20T01:21:45.222Z,1013.47
2019-01-20T01:22:45.214Z,1013.41
2019-01-20T01:23:45.213Z,1013.43
2019-01-20T01:24:45.190Z,1013.42
2019-01-20T01:25:45.180Z,1013.43
2019-01-20T01:26:45.169Z,1013.42
2019-01-20T01:27:45.157Z,1013.43
2019-01-20T01:28:45.149Z,1013.38
2019-01-20T01:30:03.273Z,1013.42
2019-01-20T01:31:27.174Z,1013.45
2019-01-20T01:32:46.311Z,1013.39
2019-01-20T01:34:08.748Z,1013.40
2019-01-20T01:35:08.703Z,1013.40
2019-01-20T01:36:50.740Z,1013.44
2019-01-20T01:37:50.729Z,1013.41
2019-01-20T01:38:50.717Z,1013.37
2019-01-20T01:39:50.709Z,1013.37
2019-01-20T01:40:50.694Z,1013.36
2019-01-20T01:41:50.684Z,1013.37
2019-01-20T01:42:50.678Z,1013.35
2019-01-20T01:43:50.662Z,1013.39
2019-01-20T01:44:50.650Z,1013.36
2019-01-20T01:45:50.640Z,1013.39
2019-01-20T01:46:50.629Z,1013.32
2019-01-20T01:47:50.626Z,1013.32
2019-01-20T01:48:50.607Z,1013.29
2019-01-20T01:49:50.596Z,1013.32
2019-01-20T01:50:50.587Z,1013.35
2019-01-20T01:51:50.608Z,1013.35
2019-01-20T01:52:50.563Z,1013.33
2019-01-20T01:53:50.552Z,1013.32
2019-01-20T01:54:50.543Z,1013.34
2019-01-20T01:55:50.534Z,1013.31
2019-01-20T01:56:50.520Z,1013.34
2019-01-20T01:57:50.511Z,1013.31
2019-01-20T01:58:50.500Z,1013.28
2019-01-20T01:59:50.489Z,1013.27
2019-01-20T02:00:50.486Z,1013.26
2019-01-20T02:01:50.465Z,1013.24
2019-01-20T02:02:50.461Z,1013.27
2019-01-20T02:03:50.445Z,1013.25
2019-01-20T02:04:50.434Z,1013.22
2019-01-20T02:05:50.422Z,1013.29
2019-01-20T02:06:50.411Z,1013.19
2019-01-20T02:07:50.400Z,1013.20
2019-01-20T02:08:50.391Z,1013.19
2019-01-20T02:09:50.383Z,1013.21
2019-01-20T02:10:50.369Z,1013.20
2019-01-20T02:11:50.356Z,1013.22
2019-01-20T02:12:50.348Z,1013.23
2019-01-20T02:13:50.335Z,1013.26
2019-01-20T02:14:50.326Z,1013.25
2019-01-20T02:15:50.315Z,1013.26
2019-01-20T02:16:50.306Z,1013.23
2019-01-20T02:17:50.297Z,1013.22
2019-01-20T02:18:50.281Z,1013.20
2019-01-20T02:19:50.269Z,1013.22
2019-01-20T02:20:50.260Z,1013.22
2019-01-20T02:21:50.250Z,1013.21
2019-01-20T02:22:50.243Z,1013.17
2019-01-20T02:23:50.265Z,1013.22
2019-01-20T02:24:50.217Z,1013.23
2019-01-20T02:25:50.203Z,1013.20
2019-01-20T02:26:50.193Z,1013.22
2019-01-20T02:27:50.188Z,1013.22
2019-01-20T02:28:50.172Z,1013.20
2019-01-20T02:29:50.162Z,1013.25
2019-01-20T02:30:50.149Z,1013.23
2019-01-20T02:31:50.141Z,1013.21
2019-01-20T02:32:50.130Z,1013.28
2019-01-20T02:33:50.116Z,1013.25
2019-01-20T02:34:50.109Z,1013.21
2019-01-20T02:35:50.095Z,1013.24
2019-01-20T02:36:50.085Z,1013.23
2019-01-20T02:37:50.078Z,1013.24
2019-01-20T02:38:50.068Z,1013.23
2019-01-20T02:39:50.060Z,1013.25
2019-01-20T02:40:50.051Z,1013.24
2019-01-20T02:41:55.125Z,1013.28
2019-01-20T02:42:51.019Z,1013.24
2019-01-20T02:43:50.007Z,1013.24
2019-01-20T02:44:49.997Z,1013.24
2019-01-20T02:45:49.987Z,1013.28
2019-01-20T02:46:50.043Z,1013.27
2019-01-20T02:47:49.963Z,1013.32
2019-01-20T02:48:49.955Z,1013.31
2019-01-20T02:49:50.006Z,1013.26
2019-01-20T02:50:49.931Z,1013.28
2019-01-20T02:51:49.924Z,1013.24
2019-01-20T02:52:49.913Z,1013.26
2019-01-20T02:53:49.919Z,1013.27
2019-01-20T02:54:49.894Z,1013.28
2019-01-20T02:55:49.898Z,1013.23
2019-01-20T02:56:49.878Z,1013.26
2019-01-20T02:57:49.863Z,1013.23
2019-01-20T02:58:49.846Z,1013.25
2019-01-20T02:59:49.865Z,1013.23
2019-01-20T03:00:49.828Z,1013.25
2019-01-20T03:01:49.814Z,1013.20
2019-01-20T03:02:49.809Z,1013.24
2019-01-20T03:03:49.789Z,1013.23
2019-01-20T03:04:49.779Z,1013.24
2019-01-20T03:05:49.769Z,1013.20
2019-01-20T03:08:17.364Z,1013.22
2019-01-20T03:09:35.510Z,1013.20
2019-01-20T03:10:59.404Z,1013.18
2019-01-20T03:12:03.564Z,1013.19
2019-01-20T03:12:59.407Z,1013.16
2019-01-20T03:13:59.368Z,1013.15
2019-01-20T03:14:59.362Z,1013.14
2019-01-20T03:15:59.345Z,1013.11
2019-01-20T03:16:59.337Z,1013.10
2019-01-20T03:17:59.350Z,1013.15
2019-01-20T03:18:59.313Z,1013.15
2019-01-20T03:19:59.302Z,1013.16
2019-01-20T03:20:59.292Z,1013.08
2019-01-20T03:21:59.289Z,1013.13
2019-01-20T03:22:59.271Z,1013.08
2019-01-20T03:23:59.266Z,1013.07
2019-01-20T03:24:59.246Z,1013.10
2019-01-20T03:25:59.237Z,1013.11
2019-01-20T03:26:59.225Z,1013.16
2019-01-20T03:27:59.219Z,1013.14
2019-01-20T03:28:59.210Z,1013.17
2019-01-20T03:29:59.211Z,1013.16
2019-01-20T03:31:18.820Z,1013.25
2019-01-20T03:32:41.219Z,1013.25
2019-01-20T03:33:41.210Z,1013.21
2019-01-20T03:34:41.195Z,1013.22
2019-01-20T03:35:41.185Z,1013.16
2019-01-20T03:36:41.175Z,1013.18
2019-01-20T03:37:41.168Z,1013.20
2019-01-20T03:38:41.155Z,1013.22
2019-01-20T03:39:41.146Z,1013.19
2019-01-20T03:40:41.135Z,1013.22
2019-01-20T03:41:59.271Z,1013.20
2019-01-20T03:43:23.158Z,1013.22
2019-01-20T03:44:23.145Z,1013.16
2019-01-20T03:45:23.137Z,1013.19
2019-01-20T03:46:23.126Z,1013.22
2019-01-20T03:47:23.116Z,1013.17
2019-01-20T03:48:23.105Z,1013.17
2019-01-20T03:49:23.095Z,1013.18
2019-01-20T03:50:23.083Z,1013.15
2019-01-20T03:51:23.071Z,1013.09
2019-01-20T03:52:23.063Z,1013.11
2019-01-20T03:53:23.048Z,1013.14
2019-01-20T03:54:23.039Z,1013.12
2019-01-20T03:55:23.028Z,1013.11
2019-01-20T03:56:23.018Z,1013.13
2019-01-20T03:57:23.007Z,1013.12
2019-01-20T03:58:22.996Z,1013.13
2019-01-20T03:59:22.988Z,1013.15
2019-01-20T04:00:22.977Z,1013.19
2019-01-20T04:01:22.964Z,1013.11
2019-01-20T04:02:22.959Z,1013.18
2019-01-20T04:03:22.944Z,1013.16
2019-01-20T04:04:22.933Z,1013.21
2019-01-20T04:05:22.921Z,1013.16
2019-01-20T04:06:22.909Z,1013.20
2019-01-20T04:07:22.901Z,1013.21
2019-01-20T04:08:22.888Z,1013.18
2019-01-20T04:09:22.879Z,1013.22
2019-01-20T04:10:22.881Z,1013.23
2019-01-20T04:11:22.857Z,1013.26
2019-01-20T04:12:22.846Z,1013.24
2019-01-20T04:13:22.834Z,1013.29
2019-01-20T04:14:22.824Z,1013.29
2019-01-20T04:15:22.814Z,1013.28
2019-01-20T04:16:22.802Z,1013.26
2019-01-20T04:17:22.792Z,1013.25
2019-01-20T04:18:22.780Z,1013.26
2019-01-20T04:19:22.770Z,1013.26
2019-01-20T04:20:22.759Z,1013.22
2019-01-20T04:21:22.766Z,1013.25
2019-01-20T04:22:22.737Z,1013.22
2019-01-20T04:23:22.729Z,1013.26
2019-01-20T04:24:22.717Z,1013.20
2019-01-20T04:25:22.707Z,1013.26
2019-01-20T04:26:22.696Z,1013.24
2019-01-20T04:27:22.687Z,1013.21
2019-01-20T04:28:22.674Z,1013.21
2019-01-20T04:29:22.664Z,1013.24
2019-01-20T04:30:22.655Z,1013.21
2019-01-20T04:31:22.640Z,1013.27
2019-01-20T04:32:22.632Z,1013.25
2019-01-20T04:33:22.620Z,1013.24
2019-01-20T04:34:22.617Z,1013.24
2019-01-20T04:35:22.597Z,1013.25
2019-01-20T04:36:22.585Z,1013.20
2019-01-20T04:37:22.575Z,1013.25
2019-01-20T04:38:22.566Z,1013.25
2019-01-20T04:39:22.554Z,1013.20
2019-01-20T04:40:22.549Z,1013.22
2019-01-20T04:41:22.542Z,1013.21
2019-01-20T04:42:28.939Z,1013.25
2019-01-20T04:43:23.512Z,1013.22
2019-01-20T04:44:22.502Z,1013.18
2019-01-20T04:45:22.490Z,1013.20
2019-01-20T04:46:22.479Z,1013.21
2019-01-20T04:47:22.472Z,1013.19
2019-01-20T04:48:22.458Z,1013.22
2019-01-20T04:49:22.447Z,1013.20
2019-01-20T04:50:22.435Z,1013.27
2019-01-20T04:51:22.427Z,1013.23
2019-01-20T04:52:22.414Z,1013.25
2019-01-20T04:53:22.408Z,1013.23
2019-01-20T04:54:22.393Z,1013.22
2019-01-20T04:55:22.385Z,1013.24
2019-01-20T04:56:22.374Z,1013.30
2019-01-20T04:57:22.360Z,1013.24
2019-01-20T04:58:24.051Z,1013.25
2019-01-20T04:59:22.340Z,1013.31
2019-01-20T05:00:22.332Z,1013.27
2019-01-20T05:01:22.319Z,1013.32
2019-01-20T05:02:22.309Z,1013.24
2019-01-20T05:03:22.296Z,1013.27
2019-01-20T05:04:22.288Z,1013.27
2019-01-20T05:05:22.275Z,1013.23
2019-01-20T05:06:22.263Z,1013.17
2019-01-20T05:07:22.254Z,1013.18
2019-01-20T05:08:22.242Z,1013.23
2019-01-20T05:09:22.233Z,1013.25
2019-01-20T05:10:22.221Z,1013.25
2019-01-20T05:11:22.210Z,1013.23
2019-01-20T05:12:22.201Z,1013.22
2019-01-20T05:13:22.191Z,1013.22
2019-01-20T05:14:22.179Z,1013.23
2019-01-20T05:15:22.186Z,1013.23
2019-01-20T05:16:22.200Z,1013.24
2019-01-20T05:17:22.147Z,1013.25
2019-01-20T05:18:22.136Z,1013.25
2019-01-20T05:19:22.125Z,1013.25
2019-01-20T05:20:22.119Z,1013.24
2019-01-20T05:21:22.103Z,1013.24
2019-01-20T05:22:22.092Z,1013.25
2019-01-20T05:23:22.083Z,1013.24
2019-01-20T05:24:22.070Z,1013.21
2019-01-20T05:25:22.059Z,1013.27
2019-01-20T05:26:22.049Z,1013.19
2019-01-20T05:27:22.039Z,1013.20
2019-01-20T05:28:22.064Z,1013.24
2019-01-20T05:29:22.019Z,1013.17
2019-01-20T05:30:22.006Z,1013.18
2019-01-20T05:31:21.996Z,1013.22
2019-01-20T05:32:21.983Z,1013.24
2019-01-20T05:33:21.976Z,1013.23
2019-01-20T05:34:21.963Z,1013.24
2019-01-20T05:35:21.956Z,1013.23
2019-01-20T05:36:21.942Z,1013.25
2019-01-20T05:37:21.930Z,1013.27
2019-01-20T05:38:21.919Z,1013.30
2019-01-20T05:39:21.914Z,1013.26
2019-01-20T05:40:21.903Z,1013.22
2019-01-20T05:41:21.888Z,1013.26
2019-01-20T05:42:21.879Z,1013.26
2019-01-20T05:43:21.868Z,1013.23
2019-01-20T05:44:21.857Z,1013.28
2019-01-20T05:45:21.846Z,1013.29
2019-01-20T05:46:21.835Z,1013.29
2019-01-20T05:47:21.825Z,1013.30
2019-01-20T05:48:21.811Z,1013.32
2019-01-20T05:49:21.803Z,1013.35
2019-01-20T05:50:21.793Z,1013.30
2019-01-20T05:51:21.779Z,1013.34
2019-01-20T05:52:21.770Z,1013.32
2019-01-20T05:53:21.758Z,1013.38
2019-01-20T05:54:21.750Z,1013.35
2019-01-20T05:55:21.739Z,1013.34
2019-01-20T05:56:21.726Z,1013.33
2019-01-20T05:57:21.715Z,1013.33
2019-01-20T05:58:21.704Z,1013.31
2019-01-20T05:59:21.696Z,1013.33
2019-01-20T06:00:21.683Z,1013.31
2019-01-20T06:01:21.674Z,1013.29
2019-01-20T06:02:21.663Z,1013.27
2019-01-20T06:03:21.651Z,1013.26
2019-01-20T06:04:21.642Z,1013.29
2019-01-20T06:05:21.630Z,1013.30
2019-01-20T06:06:21.619Z,1013.32
2019-01-20T06:07:21.609Z,1013.27
2019-01-20T06:08:21.601Z,1013.34
2019-01-20T06:09:21.590Z,1013.37
2019-01-20T06:10:21.577Z,1013.39
2019-01-20T06:11:21.566Z,1013.35
2019-01-20T06:12:21.556Z,1013.38
2019-01-20T06:13:21.546Z,1013.37
2019-01-20T06:14:21.539Z,1013.38
2019-01-20T06:15:21.523Z,1013.34
2019-01-20T06:16:21.511Z,1013.35
2019-01-20T06:17:21.502Z,1013.36
2019-01-20T06:18:21.490Z,1013.33
2019-01-20T06:19:21.481Z,1013.34
2019-01-20T06:20:21.468Z,1013.34
2019-01-20T06:21:21.458Z,1013.33
2019-01-20T06:22:21.448Z,1013.34
2019-01-20T06:23:21.438Z,1013.35
2019-01-20T06:24:21.430Z,1013.34
2019-01-20T06:25:21.419Z,1013.36
2019-01-20T06:26:21.408Z,1013.39
2019-01-20T06:27:21.397Z,1013.42
2019-01-20T06:28:21.391Z,1013.39
2019-01-20T06:31:51.227Z,1013.41
2019-01-20T06:32:51.217Z,1013.41
2019-01-20T06:33:51.206Z,1013.43
2019-01-20T06:34:51.197Z,1013.42
2019-01-20T06:39:06.014Z,1013.50
2019-01-20T06:39:30.935Z,1013.50
2019-01-20T06:41:12.485Z,1013.54
2019-01-20T06:42:12.466Z,1013.51
2019-01-20T06:43:54.009Z,1013.56
2019-01-20T06:44:53.999Z,1013.55
2019-01-20T06:46:35.543Z,1013.55
2019-01-20T06:47:35.532Z,1013.57
2019-01-20T06:49:17.076Z,1013.53
2019-01-20T06:50:17.066Z,1013.61
2019-01-20T06:51:47.539Z,1013.66
2019-01-20T06:52:47.524Z,1013.64
2019-01-20T06:54:29.073Z,1013.65
2019-01-20T06:55:29.060Z,1013.65
2019-01-20T06:57:11.109Z,1013.73
2019-01-20T06:58:11.096Z,1013.72
2019-01-20T06:59:11.098Z,1013.69
2019-01-20T07:00:11.075Z,1013.72
2019-01-20T07:01:11.063Z,1013.65
2019-01-20T07:02:11.053Z,1013.70
2019-01-20T07:03:11.045Z,1013.68
2019-01-20T07:04:11.052Z,1013.68
2019-01-20T07:05:11.020Z,1013.68
2019-01-20T07:06:11.009Z,1013.67
2019-01-20T07:07:11.000Z,1013.65
2019-01-20T07:08:10.988Z,1013.68
2019-01-20T07:09:10.975Z,1013.68
2019-01-20T07:10:10.966Z,1013.69
2019-01-20T07:11:10.956Z,1013.72
2019-01-20T07:12:10.947Z,1013.68
2019-01-20T07:13:11.382Z,1013.71
2019-01-20T07:14:10.923Z,1013.75
2019-01-20T07:15:10.911Z,1013.75
2019-01-20T07:16:10.902Z,1013.73
2019-01-20T07:17:10.890Z,1013.78
2019-01-20T07:18:10.879Z,1013.80
2019-01-20T07:19:10.869Z,1013.77
2019-01-20T07:20:10.859Z,1013.76
2019-01-20T07:21:10.847Z,1013.79
2019-01-20T07:22:10.835Z,1013.80
2019-01-20T07:23:10.830Z,1013.78
2019-01-20T07:24:11.733Z,1013.75
2019-01-20T07:25:10.803Z,1013.79
2019-01-20T07:26:10.792Z,1013.75
2019-01-20T07:27:10.781Z,1013.73
2019-01-20T07:28:10.770Z,1013.75
2019-01-20T07:29:10.760Z,1013.80
2019-01-20T07:30:10.749Z,1013.78
2019-01-20T07:31:10.767Z,1013.81
2019-01-20T07:32:10.730Z,1013.83
2019-01-20T07:33:10.717Z,1013.89
2019-01-20T07:34:10.707Z,1013.86
2019-01-20T07:35:10.695Z,1013.86
2019-01-20T07:36:10.684Z,1013.86
2019-01-20T07:37:10.675Z,1013.92
2019-01-20T07:38:10.673Z,1013.91
2019-01-20T07:39:10.652Z,1013.87
2019-01-20T07:40:10.642Z,1013.92
2019-01-20T07:41:10.631Z,1013.94
2019-01-20T07:42:10.619Z,1013.97
2019-01-20T07:43:16.794Z,1013.95
2019-01-20T07:44:11.595Z,1013.94
2019-01-20T07:45:10.585Z,1013.95
2019-01-20T07:46:10.574Z,1013.91
2019-01-20T07:47:10.565Z,1013.91
2019-01-20T07:48:10.554Z,1013.94
2019-01-20T07:49:10.545Z,1013.91
2019-01-20T07:50:10.535Z,1013.92
2019-01-20T07:51:10.522Z,1013.94
2019-01-20T07:52:10.511Z,1013.92
2019-01-20T07:53:10.502Z,1013.94
2019-01-20T07:54:10.491Z,1013.98
2019-01-20T07:55:10.482Z,1013.98
2019-01-20T07:56:10.467Z,1014.04
2019-01-20T07:57:10.456Z,1014.02
2019-01-20T07:58:10.445Z,1014.06
2019-01-20T07:59:10.432Z,1014.04
2019-01-20T08:00:10.424Z,1014.04
2019-01-20T08:01:10.412Z,1014.04
2019-01-20T08:02:10.401Z,1014.02
2019-01-20T08:03:10.391Z,1014.07
2019-01-20T08:04:10.380Z,1014.07
2019-01-20T08:05:10.370Z,1014.10
2019-01-20T08:06:10.358Z,1014.09
2019-01-20T08:07:10.347Z,1014.15
2019-01-20T08:08:10.336Z,1014.11
2019-01-20T08:09:10.325Z,1014.07
2019-01-20T08:10:10.317Z,1014.13
2019-01-20T08:11:10.303Z,1014.12
2019-01-20T08:12:10.295Z,1014.09
2019-01-20T08:13:10.284Z,1014.18
2019-01-20T08:14:10.270Z,1014.18
2019-01-20T08:15:10.260Z,1014.20
2019-01-20T08:16:10.248Z,1014.23
2019-01-20T08:17:11.324Z,1014.21
2019-01-20T08:18:10.233Z,1014.22
2019-01-20T08:19:10.217Z,1014.25
2019-01-20T08:20:10.205Z,1014.26
2019-01-20T08:21:10.194Z,1014.23
2019-01-20T08:22:10.182Z,1014.26
2019-01-20T08:23:10.176Z,1014.22
2019-01-20T08:24:10.162Z,1014.24
2019-01-20T08:25:10.151Z,1014.28
2019-01-20T08:26:10.140Z,1014.25
2019-01-20T08:27:10.132Z,1014.28
2019-01-20T08:28:10.121Z,1014.33
2019-01-20T08:29:10.109Z,1014.37
2019-01-20T08:30:10.099Z,1014.32
2019-01-20T08:31:10.086Z,1014.32
2019-01-20T08:32:10.073Z,1014.31
2019-01-20T08:33:10.063Z,1014.40
2019-01-20T08:34:10.055Z,1014.37
2019-01-20T08:35:10.042Z,1014.38
2019-01-20T08:36:10.030Z,1014.38
2019-01-20T08:37:10.024Z,1014.41
2019-01-20T08:38:10.010Z,1014.40
2019-01-20T08:39:09.998Z,1014.45
2019-01-20T08:40:09.989Z,1014.44
2019-01-20T08:41:09.977Z,1014.45
2019-01-20T08:42:09.965Z,1014.43
2019-01-20T08:43:09.955Z,1014.47
2019-01-20T08:44:09.965Z,1014.43
2019-01-20T08:45:09.936Z,1014.45
2019-01-20T08:46:09.922Z,1014.47
2019-01-20T08:47:09.912Z,1014.45
2019-01-20T08:48:09.900Z,1014.53
2019-01-20T08:49:09.890Z,1014.48
2019-01-20T08:50:09.879Z,1014.50
2019-01-20T08:51:09.871Z,1014.51
2019-01-20T08:52:09.856Z,1014.53
2019-01-20T08:53:09.848Z,1014.52
2019-01-20T08:54:09.837Z,1014.51
2019-01-20T08:55:09.824Z,1014.63
2019-01-20T08:56:09.813Z,1014.57
2019-01-20T08:57:09.801Z,1014.60
2019-01-20T08:58:09.792Z,1014.56
2019-01-20T08:59:09.780Z,1014.58
2019-01-20T09:00:09.771Z,1014.59
2019-01-20T09:01:09.758Z,1014.61
2019-01-20T09:02:09.748Z,1014.56
2019-01-20T09:03:09.795Z,1014.60
2019-01-20T09:04:09.724Z,1014.57
2019-01-20T09:05:09.714Z,1014.57
2019-01-20T09:06:09.703Z,1014.58
2019-01-20T09:07:09.694Z,1014.57
2019-01-20T09:08:09.684Z,1014.58
2019-01-20T09:09:09.670Z,1014.56
2019-01-20T09:10:09.660Z,1014.54
2019-01-20T09:11:09.648Z,1014.57
2019-01-20T09:12:09.638Z,1014.62
2019-01-20T09:13:09.627Z,1014.61
2019-01-20T09:14:09.619Z,1014.64
2019-01-20T09:15:09.605Z,1014.59
2019-01-20T09:16:09.594Z,1014.59
2019-01-20T09:17:09.583Z,1014.65
2019-01-20T09:18:09.573Z,1014.61
2019-01-20T09:19:09.562Z,1014.63
2019-01-20T09:20:09.554Z,1014.64
2019-01-20T09:21:09.540Z,1014.61
2019-01-20T09:22:09.528Z,1014.64
2019-01-20T09:23:09.518Z,1014.67
2019-01-20T09:24:09.507Z,1014.65
2019-01-20T09:25:09.496Z,1014.66
2019-01-20T09:26:09.484Z,1014.70
2019-01-20T09:27:09.473Z,1014.73
2019-01-20T09:28:09.463Z,1014.71
2019-01-20T09:29:09.453Z,1014.70
2019-01-20T09:30:09.442Z,1014.73
2019-01-20T09:31:09.458Z,1014.76
2019-01-20T09:32:09.614Z,1014.77
2019-01-20T09:33:09.433Z,1014.71
2019-01-20T09:34:09.397Z,1014.76
2019-01-20T09:35:09.419Z,1014.76
2019-01-20T09:36:09.379Z,1014.74
2019-01-20T09:37:09.384Z,1014.74
2019-01-20T09:38:09.382Z,1014.77
2019-01-20T09:39:09.344Z,1014.72
2019-01-20T09:40:09.374Z,1014.74
2019-01-20T09:41:09.324Z,1014.76
2019-01-20T09:42:09.342Z,1014.74
2019-01-20T09:43:09.299Z,1014.72
2019-01-20T09:44:09.290Z,1014.74
2019-01-20T09:45:09.276Z,1014.80
2019-01-20T09:46:09.271Z,1014.75
2019-01-20T09:47:09.272Z,1014.75
2019-01-20T09:48:09.264Z,1014.80
2019-01-20T09:49:09.238Z,1014.82
2019-01-20T09:50:09.230Z,1014.84
2019-01-20T09:51:09.238Z,1014.83
2019-01-20T09:52:09.255Z,1014.85
2019-01-20T09:53:09.196Z,1014.85
2019-01-20T09:54:09.180Z,1014.85
2019-01-20T09:55:09.193Z,1014.81
2019-01-20T09:56:09.173Z,1014.85
2019-01-20T09:57:09.146Z,1014.81
2019-01-20T09:58:09.158Z,1014.83
2019-01-20T09:59:09.129Z,1014.85
2019-01-20T10:00:09.131Z,1014.86
2019-01-20T10:01:09.108Z,1014.81
2019-01-20T10:02:09.094Z,1014.86
2019-01-20T10:03:15.992Z,1014.83
2019-01-20T10:04:10.079Z,1014.86
2019-01-20T10:05:09.070Z,1014.88
2019-01-20T10:06:09.046Z,1014.86
2019-01-20T10:07:09.078Z,1014.88
2019-01-20T10:08:09.806Z,1014.85
2019-01-20T10:09:28.217Z,1014.84
2019-01-20T10:10:51.075Z,1014.88
2019-01-20T10:12:11.697Z,1014.85
2019-01-20T10:13:33.503Z,1014.89
2019-01-20T10:14:33.474Z,1014.85
2019-01-20T10:15:33.464Z,1014.86
2019-01-20T10:16:33.452Z,1014.82
2019-01-20T10:17:33.448Z,1014.83
2019-01-20T10:18:33.430Z,1014.85
2019-01-20T10:19:33.421Z,1014.86
2019-01-20T10:20:33.410Z,1014.82
2019-01-20T10:23:01.363Z,1014.83
2019-01-20T10:24:01.346Z,1014.82
2019-01-20T10:25:01.360Z,1014.82
2019-01-20T10:26:01.334Z,1014.88
2019-01-20T10:27:01.315Z,1014.85
2019-01-20T10:28:01.304Z,1014.83
2019-01-20T10:29:01.292Z,1014.85
2019-01-20T10:30:01.284Z,1014.84
2019-01-20T10:31:01.275Z,1014.81
2019-01-20T10:32:01.259Z,1014.79
2019-01-20T10:33:01.263Z,1014.81
2019-01-20T10:34:01.240Z,1014.82
2019-01-20T10:35:01.231Z,1014.82
2019-01-20T10:36:01.220Z,1014.80
2019-01-20T10:37:01.217Z,1014.84
2019-01-20T10:38:01.195Z,1014.82
2019-01-20T10:39:01.182Z,1014.81
2019-01-20T10:40:01.177Z,1014.80
2019-01-20T10:41:01.162Z,1014.78
2019-01-20T10:42:01.151Z,1014.79
2019-01-20T10:43:01.141Z,1014.78
2019-01-20T10:44:02.342Z,1014.78
2019-01-20T10:45:01.252Z,1014.77
2019-01-20T10:46:01.107Z,1014.79
2019-01-20T10:47:01.097Z,1014.82
2019-01-20T10:48:01.092Z,1014.76
2019-01-20T10:49:01.076Z,1014.73
2019-01-20T10:50:01.065Z,1014.83
2019-01-20T10:51:01.065Z,1014.81
2019-01-20T10:52:01.042Z,1014.83
2019-01-20T10:53:01.034Z,1014.77
2019-01-20T10:54:01.024Z,1014.84
2019-01-20T10:55:01.023Z,1014.80
2019-01-20T10:56:01.008Z,1014.82
2019-01-20T10:57:00.988Z,1014.80
2019-01-20T10:58:00.974Z,1014.81
2019-01-20T10:59:00.963Z,1014.82
2019-01-20T11:00:00.965Z,1014.78
2019-01-20T11:01:00.941Z,1014.82
2019-01-20T11:02:00.929Z,1014.83
2019-01-20T11:03:00.919Z,1014.87
2019-01-20T11:04:00.914Z,1014.83
2019-01-20T11:05:00.906Z,1014.86
2019-01-20T11:06:00.886Z,1014.86
2019-01-20T11:07:00.875Z,1014.84
2019-01-20T11:08:00.867Z,1014.87
2019-01-20T11:09:00.861Z,1014.85
2019-01-20T11:10:00.864Z,1014.87
2019-01-20T11:11:00.833Z,1014.86
2019-01-20T11:12:00.824Z,1014.88
2019-01-20T11:13:00.810Z,1014.86
2019-01-20T11:14:00.799Z,1014.82
2019-01-20T11:15:00.791Z,1014.82
2019-01-20T11:16:00.780Z,1014.84
2019-01-20T11:17:00.767Z,1014.83
2019-01-20T11:18:00.760Z,1014.80
2019-01-20T11:19:00.743Z,1014.81
2019-01-20T11:20:00.734Z,1014.85
2019-01-20T11:21:00.722Z,1014.82
2019-01-20T11:22:00.713Z,1014.84
2019-01-20T11:23:00.708Z,1014.87
2019-01-20T11:24:00.690Z,1014.85
2019-01-20T11:25:00.680Z,1014.87
2019-01-20T11:26:00.668Z,1014.84
2019-01-20T11:27:00.657Z,1014.82
2019-01-20T11:28:00.651Z,1014.83
2019-01-20T11:29:00.635Z,1014.88
2019-01-20T11:30:00.629Z,1014.89
2019-01-20T11:31:00.621Z,1014.89
2019-01-20T11:32:00.601Z,1014.90
2019-01-20T11:33:00.597Z,1014.91
2019-01-20T11:34:00.587Z,1014.87
2019-01-20T11:35:00.569Z,1014.86
2019-01-20T11:36:00.559Z,1014.91
2019-01-20T11:37:00.546Z,1014.91
2019-01-20T11:38:00.536Z,1014.91
2019-01-20T11:39:00.528Z,1014.86
2019-01-20T11:40:00.533Z,1014.91
2019-01-20T11:41:00.504Z,1014.89
2019-01-20T11:42:00.499Z,1014.88
2019-01-20T11:43:00.482Z,1014.91
2019-01-20T11:44:00.471Z,1014.89
2019-01-20T11:45:00.459Z,1014.91
2019-01-20T11:46:00.449Z,1014.95
2019-01-20T11:47:00.440Z,1014.88
2019-01-20T11:48:00.427Z,1014.92
2019-01-20T11:49:00.417Z,1014.93
2019-01-20T11:50:00.404Z,1014.90
2019-01-20T11:51:00.395Z,1014.95
2019-01-20T11:52:00.381Z,1014.93
2019-01-20T11:53:00.374Z,1014.94
2019-01-20T11:54:00.359Z,1014.93
2019-01-20T11:55:00.350Z,1014.89
2019-01-20T11:56:00.342Z,1014.92
2019-01-20T11:57:00.332Z,1014.95
2019-01-20T11:58:00.320Z,1014.95
2019-01-20T11:59:00.305Z,1014.89
2019-01-20T12:00:00.295Z,1014.91
2019-01-20T12:01:00.284Z,1014.94
2019-01-20T12:02:00.272Z,1014.92
2019-01-20T12:03:00.294Z,1014.91
2019-01-20T12:04:00.249Z,1014.94
2019-01-20T12:05:00.239Z,1014.94
2019-01-20T12:06:00.228Z,1014.88
2019-01-20T12:07:00.216Z,1014.92
2019-01-20T12:08:00.207Z,1014.89
2019-01-20T12:09:00.197Z,1014.87
2019-01-20T12:10:00.233Z,1014.88
2019-01-20T12:11:00.175Z,1014.91
2019-01-20T12:12:00.166Z,1014.89
2019-01-20T12:13:00.154Z,1014.88
2019-01-20T12:14:00.144Z,1014.92
2019-01-20T12:15:00.203Z,1014.89
2019-01-20T12:16:00.120Z,1014.86
2019-01-20T12:17:00.110Z,1014.81
2019-01-20T12:18:00.097Z,1014.81
2019-01-20T12:19:00.093Z,1014.78
2019-01-20T12:20:00.112Z,1014.80
2019-01-20T12:21:00.064Z,1014.77
2019-01-20T12:22:00.053Z,1014.78
2019-01-20T12:23:00.045Z,1014.77
2019-01-20T12:24:00.030Z,1014.77
2019-01-20T12:25:00.088Z,1014.81
2019-01-20T12:26:00.018Z,1014.80
2019-01-20T12:26:59.997Z,1014.75